TimeEDT,TemperatureF,Dew PointF,Humidity,Sea Level PressureIn,VisibilityMPH,Wind Direction,Wind SpeedMPH,Gust SpeedMPH,PrecipitationIn,Events,Conditions,WindDirDegrees,DateUTC
12:58 AM,74.3,66.7,77,30.05,10.0,SW,2.3,-,N/A,,Partly Cloudy,230,2013-06-25 04:58:00
1:58 AM,72.1,66.7,83,30.03,10.0,SSE,9.2,-,N/A,,Partly Cloudy,160,2013-06-25 05:58:00
2:58 AM,70.5,67.3,89,30.03,10.0,South,5.8,-,N/A,,Clear,190,2013-06-25 06:58:00
3:58 AM,70.3,66.9,89,30.02,10.0,South,5.8,-,N/A,,Partly Cloudy,190,2013-06-25 07:58:00
4:58 AM,70.2,67.3,91,30.04,10.0,SSW,6.9,-,N/A,,Mostly Cloudy,200,2013-06-25 08:58:00
5:58 AM,70.2,67.1,90,30.05,6.0,SSW,6.9,-,N/A,,Mostly Cloudy,210,2013-06-25 09:58:00
6:58 AM,68.7,65.8,90,30.06,6.0,South,4.6,-,N/A,,Mostly Cloudy,180,2013-06-25 10:58:00
7:58 AM,71.6,66.0,82,30.05,7.0,SSW,3.5,-,N/A,,Partly Cloudy,200,2013-06-25 11:58:00
8:58 AM,76.5,66.6,71,30.04,10.0,SSW,9.2,-,N/A,,Partly Cloudy,210,2013-06-25 12:58:00
9:55 AM,80.1,68.2,67,30.04,10.0,SW,9.2,-,N/A,,Clear,230,2013-06-25 13:55:00
9:58 AM,80.1,68.2,67,30.04,10.0,SW,9.2,-,N/A,,Clear,230,2013-06-25 13:58:00
10:55 AM,83.5,69.4,62,30.02,10.0,SW,6.9,-,N/A,,Clear,220,2013-06-25 14:55:00
11:55 AM,86.4,70.2,58,30.02,10.0,SW,8.1,-,N/A,,Partly Cloudy,220,2013-06-25 15:55:00
11:58 AM,86.4,70.2,58,30.03,10.0,SW,11.5,-,N/A,,Clear,230,2013-06-25 15:58:00
12:55 PM,89.2,69.4,52,30.01,10.0,SSW,17.3,-,N/A,,Partly Cloudy,210,2013-06-25 16:55:00
12:58 PM,89.2,69.4,52,30.02,10.0,SW,16.1,-,N/A,,Clear,220,2013-06-25 16:58:00
1:55 PM,90.9,68.9,48,29.99,20.0,SSW,13.8,-,N/A,Thunderstorm,Mostly Cloudy,210,2013-06-25 17:55:00
1:58 PM,90.9,68.9,48,29.99,10.0,SSW,16.1,-,N/A,Thunderstorm,Clear,210,2013-06-25 17:58:00
2:34 PM,87.8,68.0,52,29.97,10.0,SW,15.0,-,N/A,,Scattered Clouds,220,2013-06-25 18:34:00
2:55 PM,90.1,68.0,48,29.96,10.0,SW,16.1,-,N/A,,Mostly Cloudy,230,2013-06-25 18:55:00
2:58 PM,90.1,68.0,48,29.97,10.0,SW,13.8,-,N/A,,Clear,230,2013-06-25 18:58:00
3:19 PM,89.6,68.0,49,29.96,10.0,SW,12.7,-,N/A,Thunderstorm,Thunderstorm,230,2013-06-25 19:19:00
3:27 PM,87.8,69.8,55,29.96,10.0,SW,15.0,-,N/A,Thunderstorm,Thunderstorm,230,2013-06-25 19:27:00
3:41 PM,86.0,69.8,58,29.96,7.0,West,9.2,-,N/A,Rain-Thunderstorm,Light Thunderstorms and Rain,260,2013-06-25 19:41:00
3:53 PM,82.4,69.8,66,29.96,10.0,WSW,6.9,-,N/A,,Mostly Cloudy,250,2013-06-25 19:53:00
3:58 PM,83.3,70.2,64,29.96,10.0,West,8.1,-,0.00,,Mostly Cloudy,260,2013-06-25 19:58:00
4:28 PM,87.8,69.8,55,29.95,10.0,WSW,12.7,-,N/A,Thunderstorm,Thunderstorm,240,2013-06-25 20:28:00
4:58 PM,90.3,68.7,49,29.94,10.0,SW,12.7,-,N/A,Thunderstorm,Mostly Cloudy,230,2013-06-25 20:58:00
5:23 PM,91.4,68.0,46,29.92,10.0,SW,16.1,-,N/A,,Scattered Clouds,220,2013-06-25 21:23:00
5:58 PM,90.1,68.0,48,29.91,10.0,SW,15.0,-,N/A,,Scattered Clouds,230,2013-06-25 21:58:00
6:58 PM,88.2,68.2,51,29.89,10.0,SW,18.4,24.2,N/A,,Partly Cloudy,230,2013-06-25 22:58:00
7:58 PM,86.7,68.7,55,29.89,10.0,SSW,11.5,-,N/A,,Scattered Clouds,210,2013-06-25 23:58:00
8:58 PM,83.7,68.7,61,29.88,10.0,SSW,11.5,-,N/A,,Scattered Clouds,210,2013-06-26 00:58:00
9:58 PM,79.5,68.9,70,29.90,10.0,SW,6.9,-,N/A,,Scattered Clouds,230,2013-06-26 01:58:00
10:58 PM,79.0,69.4,72,29.90,10.0,SSW,6.9,-,N/A,,Scattered Clouds,210,2013-06-26 02:58:00
11:58 PM,78.4,69.6,74,29.91,10.0,SW,6.9,-,N/A,,Scattered Clouds,220,2013-06-26 03:58:00